createdAt,value
2019-04-03T00:01:09.511Z,15.07
2019-04-03T00:03:37.202Z,14.93
2019-04-03T00:06:06.049Z,14.68
2019-04-03T00:08:34.783Z,15.17
2019-04-03T00:11:03.457Z,15.43
2019-04-03T00:13:31.124Z,15.63
2019-04-03T00:15:58.831Z,15.17
2019-04-03T00:18:26.517Z,15.67
2019-04-03T00:20:54.239Z,15.37
2019-04-03T00:23:22.377Z,15.17
2019-04-03T00:25:52.221Z,14.07
2019-04-03T00:28:22.019Z,14.83
2019-04-03T00:30:49.315Z,15.53
2019-04-03T00:33:17.019Z,15.57
2019-04-03T00:35:44.708Z,14.97
2019-04-03T00:38:12.492Z,15.70
2019-04-03T00:40:40.359Z,15.17
2019-04-03T00:43:08.217Z,14.60
2019-04-03T00:45:35.946Z,14.60
2019-04-03T00:48:03.609Z,15.57
2019-04-03T00:50:31.348Z,15.17
2019-04-03T00:52:59.046Z,15.90
2019-04-03T00:55:27.173Z,15.00
2019-04-03T00:57:56.443Z,14.93
2019-04-03T01:00:26.456Z,16.30
2019-04-03T01:02:54.473Z,15.53
2019-04-03T01:05:22.358Z,15.60
2019-04-03T01:07:50.089Z,15.30
2019-04-03T01:10:17.882Z,14.67
2019-04-03T01:12:45.886Z,15.03
2019-04-03T01:15:13.773Z,16.03
2019-04-03T01:17:41.505Z,14.40
2019-04-03T01:20:09.446Z,14.63
2019-04-03T01:22:37.772Z,16.03
2019-04-03T01:25:08.385Z,14.50
2019-04-03T01:27:35.530Z,13.93
2019-04-03T01:30:03.317Z,14.77
2019-04-03T01:32:31.027Z,16.03
2019-04-03T01:34:58.713Z,16.30
2019-04-03T01:37:26.381Z,15.80
2019-04-03T01:39:54.095Z,15.50
2019-04-03T01:42:22.508Z,14.57
2019-04-03T01:44:50.317Z,15.53
2019-04-03T01:47:18.282Z,15.60
2019-04-03T01:49:45.944Z,14.63
2019-04-03T01:52:13.679Z,16.07
2019-04-03T01:54:41.458Z,15.60
2019-04-03T01:57:09.238Z,15.50
2019-04-03T01:59:37.589Z,14.93
2019-04-03T02:02:06.891Z,16.13
2019-04-03T02:04:35.259Z,15.90
2019-04-03T02:07:03.019Z,15.67
2019-04-03T02:09:30.920Z,14.93
2019-04-03T02:11:58.679Z,16.67
2019-04-03T02:14:26.626Z,15.53
2019-04-03T02:16:54.446Z,16.00
2019-04-03T02:19:22.133Z,15.47
2019-04-03T02:21:49.870Z,15.63
2019-04-03T02:24:20.317Z,14.73
2019-04-03T02:26:48.148Z,15.33
2019-04-03T02:29:15.900Z,14.20
2019-04-03T02:31:43.684Z,15.37
2019-04-03T02:34:11.330Z,16.07
2019-04-03T02:36:39.179Z,15.93
2019-04-03T02:39:07.347Z,15.00
2019-04-03T02:41:36.494Z,15.97
2019-04-03T02:44:05.442Z,15.60
2019-04-03T02:46:33.164Z,16.07
2019-04-03T02:49:01.039Z,14.57
2019-04-03T02:51:29.330Z,15.20
2019-04-03T02:54:01.381Z,15.13
2019-04-03T02:56:27.015Z,14.50
2019-04-03T02:58:55.171Z,16.00
2019-04-03T03:01:23.423Z,16.00
2019-04-03T03:03:51.131Z,15.37
2019-04-03T03:06:18.839Z,15.97
2019-04-03T03:08:46.647Z,15.90
2019-04-03T03:11:14.624Z,15.60
2019-04-03T03:13:44.289Z,15.20
2019-04-03T03:16:12.122Z,15.83
2019-04-03T03:18:40.294Z,15.60
2019-04-03T03:21:11.760Z,15.57
2019-04-03T03:23:37.713Z,15.00
2019-04-03T03:26:06.226Z,16.70
2019-04-03T03:28:34.462Z,15.60
2019-04-03T03:31:05.243Z,15.43
2019-04-03T03:33:36.955Z,15.00
2019-04-03T03:36:01.319Z,14.83
2019-04-03T03:38:29.306Z,18.33
2019-04-03T03:40:57.366Z,19.80
2019-04-03T03:43:25.584Z,16.53
2019-04-03T03:45:54.080Z,19.13
2019-04-03T03:48:22.131Z,17.73
2019-04-03T03:50:49.984Z,15.10
2019-04-03T03:53:17.902Z,20.73
2019-04-03T03:55:45.618Z,40.77
2019-04-03T03:58:14.106Z,35.00
2019-04-03T04:00:42.010Z,30.93
2019-04-03T04:03:11.145Z,47.37
2019-04-03T04:05:39.398Z,24.40
2019-04-03T04:08:10.653Z,18.73
2019-04-03T04:10:38.265Z,18.90
2019-04-03T04:13:06.237Z,20.70
2019-04-03T04:15:33.986Z,18.40
2019-04-03T04:18:02.812Z,14.57
2019-04-03T04:20:31.158Z,17.17
2019-04-03T04:22:59.617Z,17.57
2019-04-03T04:25:28.318Z,16.30
2019-04-03T04:27:57.679Z,15.77
2019-04-03T04:30:25.485Z,16.67
2019-04-03T04:32:53.288Z,17.23
2019-04-03T04:35:22.063Z,17.63
2019-04-03T04:37:50.027Z,16.73
2019-04-03T04:40:17.735Z,15.47
2019-04-03T04:42:45.643Z,17.27
2019-04-03T04:45:13.459Z,21.67
2019-04-03T04:47:41.230Z,27.27
2019-04-03T04:50:09.017Z,19.50
2019-04-03T04:52:36.804Z,15.00
2019-04-03T04:55:04.746Z,14.60
2019-04-03T04:57:32.518Z,14.57
2019-04-03T05:00:00.248Z,17.07
2019-04-03T05:02:27.951Z,17.33
2019-04-03T05:04:56.555Z,15.53
2019-04-03T05:07:24.409Z,13.87
2019-04-03T05:09:52.476Z,14.73
2019-04-03T05:12:20.409Z,16.70
2019-04-03T05:14:48.854Z,16.87
2019-04-03T05:17:17.222Z,17.90
2019-04-03T05:19:45.009Z,16.37
2019-04-03T05:22:12.879Z,17.30
2019-04-03T05:24:40.588Z,14.90
2019-04-03T05:27:08.451Z,15.13
2019-04-03T05:29:36.186Z,14.87
2019-04-03T05:32:04.264Z,14.50
2019-04-03T05:34:31.953Z,16.77
2019-04-03T05:36:59.670Z,14.80
2019-04-03T05:39:27.412Z,14.87
2019-04-03T05:41:58.212Z,13.63
2019-04-03T05:44:24.694Z,15.47
2019-04-03T05:46:52.472Z,14.27
2019-04-03T05:49:20.221Z,13.40
2019-04-03T05:51:48.300Z,15.57
2019-04-03T05:54:16.236Z,15.07
2019-04-03T05:56:44.303Z,13.17
2019-04-03T05:59:12.211Z,15.90
2019-04-03T06:01:42.630Z,14.83
2019-04-03T06:04:09.940Z,13.77
2019-04-03T06:06:38.478Z,11.87
2019-04-03T06:09:07.152Z,13.97
2019-04-03T06:11:35.034Z,14.13
2019-04-03T06:14:02.873Z,11.33
2019-04-03T06:16:30.675Z,14.37
2019-04-03T06:18:59.130Z,12.63
2019-04-03T06:21:27.547Z,12.67
2019-04-03T06:23:55.401Z,13.50
2019-04-03T06:26:23.489Z,13.67
2019-04-03T06:28:51.357Z,13.47
2019-04-03T06:31:19.106Z,13.93
2019-04-03T06:33:46.888Z,12.57
2019-04-03T06:36:16.953Z,13.03
2019-04-03T06:38:44.055Z,13.07
2019-04-03T06:41:11.815Z,13.97
2019-04-03T06:43:39.594Z,12.23
2019-04-03T06:46:07.445Z,12.60
2019-04-03T06:48:36.510Z,13.30
2019-04-03T06:51:04.820Z,11.37
2019-04-03T06:53:32.597Z,12.33
2019-04-03T06:56:00.522Z,12.87
2019-04-03T06:58:37.331Z,13.30
2019-04-03T07:00:57.947Z,13.10
2019-04-03T07:03:25.857Z,11.73
2019-04-03T07:05:53.753Z,11.63
2019-04-03T07:08:30.030Z,11.27
2019-04-03T07:10:54.785Z,12.97
2019-04-03T07:13:20.951Z,11.27
2019-04-03T07:15:48.828Z,11.77
2019-04-03T07:18:16.589Z,12.53
2019-04-03T07:20:44.375Z,12.30
2019-04-03T07:23:12.346Z,13.80
2019-04-03T07:25:40.089Z,11.13
2019-04-03T07:28:08.877Z,11.60
2019-04-03T07:30:37.381Z,10.83
2019-04-03T07:33:06.231Z,11.77
2019-04-03T07:35:34.224Z,11.07
2019-04-03T07:38:02.010Z,12.87
2019-04-03T07:40:29.866Z,12.47
2019-04-03T07:42:58.150Z,9.97
2019-04-03T07:45:25.922Z,11.60
2019-04-03T07:47:53.886Z,10.30
2019-04-03T07:50:21.593Z,11.57
2019-04-03T07:52:49.676Z,11.30
2019-04-03T07:55:17.496Z,10.30
2019-04-03T07:57:45.531Z,11.20
2019-04-03T08:00:13.524Z,10.97
2019-04-03T08:02:47.472Z,10.03
2019-04-03T08:05:10.850Z,10.83
2019-04-03T08:07:38.673Z,10.50
2019-04-03T08:10:06.742Z,11.30
2019-04-03T08:12:35.476Z,11.17
2019-04-03T08:15:04.668Z,9.63
2019-04-03T08:17:32.465Z,10.20
2019-04-03T08:20:00.280Z,10.83
2019-04-03T08:22:28.042Z,10.27
2019-04-03T08:24:55.807Z,9.53
2019-04-03T08:27:24.428Z,9.13
2019-04-03T08:29:52.448Z,9.87
2019-04-03T08:32:20.220Z,10.60
2019-04-03T08:34:47.984Z,9.83
2019-04-03T08:37:23.023Z,10.67
2019-04-03T08:39:45.261Z,10.87
2019-04-03T08:42:13.132Z,11.43
2019-04-03T08:44:40.918Z,10.27
2019-04-03T08:47:08.978Z,9.90
2019-04-03T08:49:36.757Z,11.53
2019-04-03T08:52:06.123Z,11.20
2019-04-03T08:54:34.206Z,10.60
2019-04-03T08:57:02.332Z,9.37
2019-04-03T08:59:30.045Z,10.40
2019-04-03T09:01:57.781Z,10.47
2019-04-03T09:04:25.736Z,10.63
2019-04-03T09:06:54.592Z,10.80
2019-04-03T09:09:22.543Z,10.43
2019-04-03T09:11:50.466Z,10.23
2019-04-03T09:14:19.799Z,9.83
2019-04-03T09:16:48.125Z,10.53
2019-04-03T09:19:17.279Z,10.13
2019-04-03T09:21:50.196Z,9.20
2019-04-03T09:24:15.086Z,10.87
2019-04-03T09:26:43.068Z,9.07
2019-04-03T09:29:12.641Z,10.27
2019-04-03T09:31:40.853Z,9.83
2019-04-03T09:34:08.846Z,9.97
2019-04-03T09:36:36.595Z,9.07
2019-04-03T09:39:07.409Z,9.77
2019-04-03T09:41:35.253Z,10.77
2019-04-03T09:44:03.458Z,9.77
2019-04-03T09:46:31.928Z,10.33
2019-04-03T09:49:00.227Z,7.97
2019-04-03T09:51:27.999Z,9.50
2019-04-03T09:53:57.885Z,9.47
2019-04-03T09:56:25.507Z,9.57
2019-04-03T09:58:55.922Z,8.40
2019-04-03T10:01:22.834Z,9.43
2019-04-03T10:03:53.898Z,9.80
2019-04-03T10:06:20.111Z,8.33
2019-04-03T10:08:47.980Z,9.73
2019-04-03T10:11:16.150Z,9.10
2019-04-03T10:13:45.382Z,8.67
2019-04-03T10:16:15.514Z,8.87
2019-04-03T10:18:43.008Z,8.27
2019-04-03T10:21:11.018Z,9.47
2019-04-03T10:23:38.779Z,8.63
2019-04-03T10:26:08.803Z,12.13
2019-04-03T10:28:35.938Z,10.77
2019-04-03T10:31:03.674Z,9.97
2019-04-03T10:33:32.418Z,9.57
2019-04-03T10:36:00.170Z,10.33
2019-04-03T10:38:27.938Z,10.00
2019-04-03T10:40:56.284Z,7.20
2019-04-03T10:43:24.895Z,10.00
2019-04-03T10:45:52.717Z,9.37
2019-04-03T10:48:20.435Z,9.97
2019-04-03T10:50:48.325Z,9.20
2019-04-03T10:53:16.051Z,9.77
2019-04-03T10:55:43.825Z,9.87
2019-04-03T10:58:11.695Z,10.67
2019-04-03T11:00:39.674Z,11.60
2019-04-03T11:03:07.429Z,10.63
2019-04-03T11:05:35.190Z,10.30
2019-04-03T11:08:03.161Z,13.47
2019-04-03T11:10:31.053Z,11.83
2019-04-03T11:12:58.997Z,9.57
2019-04-03T11:15:27.069Z,9.40
2019-04-03T11:17:54.876Z,9.60
2019-04-03T11:20:24.740Z,7.23
2019-04-03T11:23:04.425Z,8.57
2019-04-03T11:25:22.153Z,10.33
2019-04-03T11:27:49.888Z,11.57
2019-04-03T11:30:23.299Z,11.17
2019-04-03T11:32:47.494Z,8.43
2019-04-03T11:35:15.363Z,11.20
2019-04-03T11:37:43.125Z,9.60
2019-04-03T11:40:11.194Z,8.73
2019-04-03T11:42:38.995Z,9.93
2019-04-03T11:45:07.264Z,9.00
2019-04-03T11:47:35.319Z,9.73
2019-04-03T11:50:07.970Z,11.13
2019-04-03T11:52:35.749Z,8.77
2019-04-03T11:55:04.626Z,10.17
2019-04-03T11:57:32.418Z,8.60
2019-04-03T12:00:00.182Z,11.73
2019-04-03T12:02:28.323Z,9.00
2019-04-03T12:04:56.543Z,10.60
2019-04-03T12:07:25.117Z,8.20
2019-04-03T12:09:53.489Z,9.37
2019-04-03T12:12:21.573Z,8.73
2019-04-03T12:14:50.152Z,8.40
2019-04-03T12:17:18.015Z,9.93
2019-04-03T12:19:46.195Z,11.37
2019-04-03T12:22:14.274Z,10.57
2019-04-03T12:24:42.141Z,11.07
2019-04-03T12:27:09.914Z,11.70
2019-04-03T12:29:37.773Z,11.53
2019-04-03T12:32:07.799Z,9.97
2019-04-03T12:34:37.455Z,10.53
2019-04-03T12:37:04.443Z,10.97
2019-04-03T12:39:32.234Z,12.17
2019-04-03T12:42:00.381Z,9.70
2019-04-03T12:44:28.250Z,9.50
2019-04-03T12:46:56.013Z,8.40
2019-04-03T12:49:24.250Z,12.27
2019-04-03T12:51:52.060Z,8.43
2019-04-03T12:54:20.610Z,10.67
2019-04-03T12:56:49.297Z,9.20
2019-04-03T12:59:20.087Z,10.13
2019-04-03T13:01:48.699Z,9.03
2019-04-03T13:04:16.372Z,10.20
2019-04-03T13:06:44.161Z,9.50
2019-04-03T13:09:12.373Z,9.47
2019-04-03T13:11:40.099Z,10.67
2019-04-03T13:14:08.288Z,9.87
2019-04-03T13:16:36.510Z,10.43
2019-04-03T13:19:04.978Z,9.87
2019-04-03T13:21:33.037Z,9.00
2019-04-03T13:24:00.875Z,10.07
2019-04-03T13:26:28.786Z,11.20
2019-04-03T13:28:56.506Z,9.97
2019-04-03T13:31:25.139Z,10.67
2019-04-03T13:33:53.281Z,10.00
2019-04-03T13:36:23.695Z,9.47
2019-04-03T13:38:51.720Z,8.30
2019-04-03T13:41:19.682Z,8.93
2019-04-03T13:43:47.537Z,10.47
2019-04-03T13:46:15.513Z,10.10
2019-04-03T13:48:44.956Z,10.33
2019-04-03T13:51:12.979Z,8.97
2019-04-03T13:53:40.928Z,9.93
2019-04-03T13:56:11.165Z,10.50
2019-04-03T13:58:38.390Z,9.27
2019-04-03T14:01:09.196Z,9.90
2019-04-03T14:03:35.813Z,9.50
2019-04-03T14:06:04.491Z,9.67
2019-04-03T14:08:33.236Z,9.67
2019-04-03T14:11:01.400Z,9.10
2019-04-03T14:13:29.773Z,9.50
2019-04-03T14:15:57.957Z,10.27
2019-04-03T14:18:26.098Z,9.77
2019-04-03T14:20:55.999Z,10.77
2019-04-03T14:23:23.659Z,9.63
2019-04-03T14:26:03.067Z,9.50
2019-04-03T14:28:20.954Z,9.63
2019-04-03T14:30:48.811Z,11.07
2019-04-03T14:33:18.922Z,8.70
2019-04-03T14:35:51.863Z,9.93
2019-04-03T14:38:15.596Z,9.00
2019-04-03T14:40:44.361Z,9.87
2019-04-03T14:43:12.997Z,10.20
2019-04-03T14:45:41.038Z,9.53
2019-04-03T14:48:09.259Z,9.80
2019-04-03T14:50:38.374Z,10.17
2019-04-03T14:53:06.979Z,8.97
2019-04-03T14:55:45.921Z,9.13
2019-04-03T14:58:05.532Z,9.00
2019-04-03T15:00:33.364Z,9.33
2019-04-03T15:03:03.904Z,10.00
2019-04-03T15:05:30.880Z,7.63
2019-04-03T15:07:58.840Z,9.90
2019-04-03T15:10:26.575Z,8.57
2019-04-03T15:12:54.683Z,9.10
2019-04-03T15:15:22.638Z,9.97
2019-04-03T15:17:50.388Z,9.87
2019-04-03T15:20:19.210Z,9.77
2019-04-03T15:22:47.677Z,8.53
2019-04-03T15:25:16.759Z,9.60
2019-04-03T15:27:44.942Z,9.30
2019-04-03T15:30:13.484Z,9.67
2019-04-03T15:32:41.402Z,9.67
2019-04-03T15:35:09.198Z,8.33
2019-04-03T15:37:40.105Z,10.67
2019-04-03T15:40:07.147Z,15.43
2019-04-03T15:42:38.388Z,9.40
2019-04-03T15:45:06.615Z,7.87
2019-04-03T15:47:38.697Z,9.70
2019-04-03T15:50:05.173Z,9.17
2019-04-03T15:52:33.041Z,9.93
2019-04-03T15:55:03.610Z,10.00
2019-04-03T15:57:30.314Z,9.77
2019-04-03T15:59:58.075Z,9.47
2019-04-03T16:02:27.970Z,9.33
2019-04-03T16:04:55.244Z,9.27
2019-04-03T16:07:23.244Z,10.03
2019-04-03T16:09:51.581Z,9.60
2019-04-03T16:12:20.073Z,10.53
2019-04-03T16:14:48.807Z,10.00
2019-04-03T16:17:17.709Z,10.07
2019-04-03T16:19:45.525Z,10.83
2019-04-03T16:22:13.649Z,11.27
2019-04-03T16:24:44.282Z,11.10
2019-04-03T16:27:11.087Z,10.97
2019-04-03T16:29:40.424Z,13.47
2019-04-03T16:32:08.249Z,12.30
2019-04-03T16:34:36.031Z,20.70
2019-04-03T16:37:04.301Z,18.43
2019-04-03T16:39:32.859Z,27.23
2019-04-03T16:42:01.218Z,35.37
2019-04-03T16:44:29.136Z,16.23
2019-04-03T16:46:56.900Z,30.60
2019-04-03T16:49:25.037Z,26.93
2019-04-03T16:51:53.711Z,18.07
2019-04-03T16:54:21.538Z,17.67
2019-04-03T16:56:50.061Z,25.60
2019-04-03T16:59:17.973Z,26.10
2019-04-03T17:01:46.805Z,27.83
2019-04-03T17:04:24.990Z,20.90
2019-04-03T17:06:46.521Z,40.13
2019-04-03T17:09:13.673Z,42.43
2019-04-03T17:11:44.911Z,38.60
2019-04-03T17:14:10.928Z,29.00
2019-04-03T17:16:39.078Z,40.73
2019-04-03T17:19:06.967Z,38.33
2019-04-03T17:21:37.572Z,52.13
2019-04-03T17:24:04.912Z,56.90
2019-04-03T17:26:32.722Z,57.07
2019-04-03T17:29:05.061Z,50.40
2019-04-03T17:31:30.099Z,36.30
2019-04-03T17:33:57.966Z,22.80
2019-04-03T17:36:25.841Z,36.53
2019-04-03T17:38:54.055Z,77.13
2019-04-03T17:41:21.890Z,71.17
2019-04-03T17:43:49.657Z,25.63
2019-04-03T17:46:17.728Z,21.13
2019-04-03T17:48:46.114Z,18.47
2019-04-03T17:51:13.970Z,14.17
2019-04-03T17:53:41.744Z,15.23
2019-04-03T17:56:12.337Z,14.63
2019-04-03T17:58:38.914Z,13.73
2019-04-03T18:01:06.666Z,15.67
2019-04-03T18:03:34.454Z,16.77
2019-04-03T18:06:02.200Z,13.07
2019-04-03T18:08:32.510Z,15.73
2019-04-03T18:10:59.472Z,14.70
2019-04-03T18:13:27.235Z,13.37
2019-04-03T18:15:54.996Z,13.27
2019-04-03T18:18:22.782Z,13.67
2019-04-03T18:20:50.644Z,14.30
2019-04-03T18:23:19.879Z,13.87
2019-04-03T18:25:47.799Z,14.23
2019-04-03T18:28:15.510Z,13.60
2019-04-03T18:30:43.437Z,13.63
2019-04-03T18:33:11.310Z,14.60
2019-04-03T18:35:39.178Z,13.77
2019-04-03T18:38:08.140Z,14.37
2019-04-03T18:40:36.316Z,13.27
2019-04-03T18:43:04.126Z,14.83
2019-04-03T18:45:31.988Z,14.63
2019-04-03T18:47:59.719Z,13.27
2019-04-03T18:50:27.725Z,14.10
2019-04-03T18:52:55.696Z,13.67
2019-04-03T18:55:23.457Z,15.83
2019-04-03T18:57:51.323Z,15.00
2019-04-03T19:00:19.101Z,16.07
2019-04-03T19:02:46.855Z,15.53
2019-04-03T19:05:16.035Z,14.97
2019-04-03T19:07:45.975Z,17.07
2019-04-03T19:10:13.329Z,17.70
2019-04-03T19:12:43.338Z,21.53
2019-04-03T19:15:10.713Z,26.23
2019-04-03T19:17:38.572Z,43.63
2019-04-03T19:20:10.790Z,35.87
2019-04-03T19:22:36.457Z,22.03
2019-04-03T19:25:05.587Z,19.57
2019-04-03T19:27:33.536Z,20.03
2019-04-03T19:30:01.394Z,19.00
2019-04-03T19:32:29.265Z,20.37
2019-04-03T19:34:57.144Z,20.00
2019-04-03T19:37:24.892Z,18.80
2019-04-03T19:40:03.326Z,17.70
2019-04-03T19:42:27.097Z,17.23
2019-04-03T19:44:54.959Z,18.03
2019-04-03T19:47:24.554Z,20.33
2019-04-03T19:49:52.242Z,18.63
2019-04-03T19:52:21.775Z,18.00
2019-04-03T19:54:51.321Z,20.23
2019-04-03T19:57:18.922Z,20.77
2019-04-03T19:59:46.787Z,19.73
2019-04-03T20:02:14.539Z,20.70
2019-04-03T20:04:42.512Z,20.27
2019-04-03T20:07:10.378Z,21.47
2019-04-03T20:09:38.138Z,22.07
2019-04-03T20:12:07.057Z,20.13
2019-04-03T20:14:35.517Z,19.80
2019-04-03T20:17:03.279Z,19.93
2019-04-03T20:19:31.150Z,18.97
2019-04-03T20:21:58.916Z,19.77
2019-04-03T20:24:26.583Z,19.77
2019-04-03T20:26:54.549Z,17.33
2019-04-03T20:29:22.329Z,14.07
2019-04-03T20:31:49.985Z,20.20
2019-04-03T20:34:17.845Z,18.57
2019-04-03T20:36:45.718Z,17.77
2019-04-03T20:39:13.493Z,16.37
2019-04-03T20:41:41.245Z,18.80
2019-04-03T20:44:09.224Z,16.87
2019-04-03T20:46:37.092Z,17.97
2019-04-03T20:49:04.848Z,16.93
2019-04-03T20:51:32.544Z,17.40
2019-04-03T20:54:00.225Z,17.80
2019-04-03T20:56:29.040Z,17.30
2019-04-03T20:58:57.458Z,18.87
2019-04-03T21:01:25.219Z,18.70
2019-04-03T21:03:53.121Z,16.30
2019-04-03T21:06:21.156Z,18.03
2019-04-03T21:08:48.890Z,18.57
2019-04-03T21:11:16.614Z,20.47
2019-04-03T21:13:44.560Z,21.20
2019-04-03T21:16:12.258Z,21.87
2019-04-03T21:18:40.001Z,22.33
2019-04-03T21:21:07.859Z,22.20
2019-04-03T21:23:35.521Z,22.07
2019-04-03T21:26:03.227Z,23.17
2019-04-03T21:28:30.937Z,23.50
2019-04-03T21:30:58.659Z,26.10
2019-04-03T21:33:26.803Z,29.50
2019-04-03T21:35:54.865Z,37.73
2019-04-03T21:38:22.874Z,31.60
2019-04-03T21:40:50.549Z,32.17
2019-04-03T21:43:18.328Z,33.40
2019-04-03T21:45:46.168Z,33.23
2019-04-03T21:48:14.368Z,29.07
2019-04-03T21:50:42.743Z,29.00
2019-04-03T21:53:10.560Z,28.57
2019-04-03T21:55:38.856Z,27.40
2019-04-03T21:58:06.918Z,27.97
2019-04-03T22:00:45.261Z,27.37
2019-04-03T22:03:13.387Z,27.83
2019-04-03T22:05:41.062Z,29.20
2019-04-03T22:08:08.874Z,28.73
2019-04-03T22:10:36.587Z,28.73
2019-04-03T22:13:05.877Z,27.80
2019-04-03T22:15:34.021Z,28.10
2019-04-03T22:18:02.106Z,29.03
2019-04-03T22:20:30.118Z,30.03
2019-04-03T22:22:58.325Z,28.97
2019-04-03T22:25:25.992Z,27.87
2019-04-03T22:27:53.704Z,29.40
2019-04-03T22:30:22.323Z,29.07
2019-04-03T22:32:50.399Z,28.20
2019-04-03T22:35:18.424Z,29.13
2019-04-03T22:37:46.498Z,28.33
2019-04-03T22:40:14.590Z,28.23
2019-04-03T22:42:45.399Z,27.30
2019-04-03T22:45:12.445Z,27.93
2019-04-03T22:47:40.520Z,26.37
2019-04-03T22:50:08.365Z,26.90
2019-04-03T22:52:39.640Z,28.70
2019-04-03T22:55:06.721Z,27.77
2019-04-03T22:57:34.458Z,27.57
2019-04-03T23:00:02.516Z,26.63
2019-04-03T23:02:31.845Z,30.30
2019-04-03T23:05:00.025Z,28.93
2019-04-03T23:07:28.154Z,29.50
2019-04-03T23:09:56.783Z,27.50
2019-04-03T23:12:24.992Z,27.57
2019-04-03T23:14:53.019Z,29.00
2019-04-03T23:17:21.331Z,29.23
2019-04-03T23:19:49.881Z,28.77
2019-04-03T23:22:18.414Z,28.60
2019-04-03T23:24:46.482Z,28.00
2019-04-03T23:27:14.796Z,29.27
2019-04-03T23:29:42.984Z,29.43
2019-04-03T23:32:11.004Z,28.90
2019-04-03T23:34:39.134Z,29.07
2019-04-03T23:37:07.230Z,31.13
2019-04-03T23:39:35.353Z,30.80
2019-04-03T23:42:03.089Z,30.57
2019-04-03T23:44:30.815Z,29.47
2019-04-03T23:46:58.496Z,30.53
2019-04-03T23:49:26.197Z,30.27
2019-04-03T23:51:54.366Z,30.93
2019-04-03T23:54:22.066Z,30.60
2019-04-03T23:56:49.752Z,28.70
2019-04-03T23:59:17.937Z,29.60
